Time;durP1;ratioP1;P1;durP2;ratioP2;P2;SDS_P1;SDS_P2;PMS_P1;PMS_P2;Temp;Humidity;BMP_temperature;BMP_pressure;BME280_temperature;BME280_humidity;BME280_pressure;Samples;Min_cycle;Max_cycle;Signal;HPM_P1;HPM_P2
2021/06/02 01:05:28;;;;;;;9.68;7.18;;;16.80;99.90;;;;;;5949413;23;20061;-83
2021/06/02 01:08:58;;;;;;;;;;;;;;;;;;;;;
2021/06/02 01:59:41;;;;;;;;;;;;;;;;;;;;;
2021/06/02 02:17:50;;;;;;;9.77;7.82;;;16.20;99.90;;;;;;5791623;24;20035;-81
2021/06/02 02:21:29;;;;;;;10.00;8.02;;;16.00;99.90;;;;;;5794101;24;20028;-79
2021/06/02 02:45:16;;;;;;;12.40;8.68;;;15.40;99.90;;;;;;5952270;24;20051;-79
2021/06/02 02:48:02;;;;;;;;;;;15.40;99.90;;;;;;5957024;23;20028;-78
2021/06/02 02:57:16;;;;;;;9.38;7.88;;;15.30;99.90;;;;;;5965104;23;20182;-80
2021/06/02 02:59:51;;;;;;;9.45;7.82;;;15.30;99.90;;;;;;6009602;23;20028;-79
2021/06/02 03:02:23;;;;;;;9.57;8.00;;;15.30;99.90;;;;;;6068123;23;20029;-80
2021/06/02 03:04:54;;;;;;;9.68;8.05;;;15.20;99.90;;;;;;6125939;23;20477;-80
2021/06/02 03:07:22;;;;;;;8.77;7.57;;;15.20;99.90;;;;;;6127360;23;20026;-79
2021/06/02 03:09:53;;;;;;;9.85;7.75;;;15.20;99.90;;;;;;6127231;23;20025;-79
2021/06/02 03:12:27;;;;;;;13.70;8.20;;;15.10;99.90;;;;;;6126166;23;20064;-80
2021/06/02 03:15:02;;;;;;;10.85;7.38;;;15.10;99.90;;;;;;6125033;23;20060;-78
2021/06/02 03:17:34;;;;;;;12.95;7.63;;;15.10;99.90;;;;;;6125148;23;20025;-78
2021/06/02 03:20:07;;;;;;;8.90;8.00;;;15.10;99.90;;;;;;6128284;23;20025;-80
2021/06/02 03:22:43;;;;;;;8.00;6.85;;;15.10;99.90;;;;;;6129969;23;20277;-79
2021/06/02 03:25:21;;;;;;;10.40;8.00;;;15.10;99.90;;;;;;6131137;23;20022;-81
2021/06/02 03:28:02;;;;;;;10.30;7.15;;;15.10;99.90;;;;;;6130163;23;20096;-81
2021/06/02 03:30:34;;;;;;;12.50;7.95;;;15.00;99.90;;;;;;6131597;23;20444;-81
2021/06/02 03:33:22;;;;;;;8.68;7.78;;;15.00;99.90;;;;;;6131171;23;20097;-82
2021/06/02 03:35:59;;;;;;;9.48;8.48;;;15.10;99.90;;;;;;6131188;23;20049;-80
2021/06/02 03:38:59;;;;;;;9.82;8.32;;;15.10;99.90;;;;;;6132082;23;20137;-82
2021/06/02 03:41:40;;;;;;;10.77;8.43;;;15.10;99.90;;;;;;6133139;23;20082;-81
2021/06/02 03:44:17;;;;;;;10.40;8.57;;;15.10;99.90;;;;;;6133251;23;20026;-81
2021/06/02 03:46:54;;;;;;;10.80;8.95;;;15.10;99.90;;;;;;6132396;23;20246;-79
2021/06/02 03:49:29;;;;;;;11.25;8.43;;;15.10;99.90;;;;;;6129382;23;20027;-80
2021/06/02 03:51:58;;;;;;;13.18;9.35;;;15.10;99.90;;;;;;6129138;23;20033;-80
2021/06/02 03:54:32;;;;;;;12.43;9.70;;;15.00;99.90;;;;;;6129041;23;20057;-80
2021/06/02 03:57:23;;;;;;;15.93;10.18;;;15.10;99.90;;;;;;6131053;23;20021;-80
2021/06/02 04:00:09;;;;;;;13.50;9.98;;;15.00;99.90;;;;;;6132607;23;20022;-80
2021/06/02 04:02:46;;;;;;;12.70;10.30;;;15.20;99.90;;;;;;6136375;23;20044;-81
2021/06/02 04:05:33;;;;;;;13.15;9.57;;;15.70;99.90;;;;;;6141740;23;20022;-81
2021/06/02 04:08:22;;;;;;;14.43;9.52;;;16.40;99.90;;;;;;6143241;23;20026;-82
2021/06/02 04:11:05;;;;;;;13.95;9.20;;;17.00;99.90;;;;;;6143177;23;20067;-81
2021/06/02 04:13:44;;;;;;;12.25;9.30;;;17.70;99.90;;;;;;6134367;23;20032;-84
2021/06/02 04:16:13;;;;;;;14.75;9.32;;;18.10;99.90;;;;;;6133582;23;20037;-81
2021/06/02 04:18:42;;;;;;;12.45;8.80;;;18.20;99.90;;;;;;6139374;23;20065;-81
2021/06/02 04:21:16;;;;;;;10.30;8.88;;;18.20;99.90;;;;;;6139893;23;20040;-82
2021/06/02 04:23:44;;;;;;;11.07;8.98;;;18.10;99.90;;;;;;6140127;23;20069;-80
2021/06/02 04:26:11;;;;;;;10.43;9.07;;;18.30;99.90;;;;;;6141712;23;20026;-81
2021/06/02 04:28:39;;;;;;;9.75;8.75;;;18.50;99.90;;;;;;6138535;23;20070;-80
2021/06/02 04:31:08;;;;;;;12.98;8.98;;;19.00;99.90;;;;;;6133643;23;20030;-80
2021/06/02 04:33:36;;;;;;;12.27;8.75;;;19.10;99.90;;;;;;6130666;23;20105;-80
2021/06/02 04:36:05;;;;;;;11.25;8.65;;;19.00;99.90;;;;;;6129595;23;20026;-79
2021/06/02 04:38:34;;;;;;;11.00;9.30;;;18.80;99.90;;;;;;6129968;23;20112;-79
2021/06/02 04:41:01;;;;;;;13.70;9.07;;;18.70;99.90;;;;;;6128856;23;20018;-80
2021/06/02 04:43:30;;;;;;;16.88;9.23;;;18.60;99.90;;;;;;6130130;23;20030;-80
2021/06/02 04:45:58;;;;;;;15.02;9.27;;;18.70;99.90;;;;;;6132033;23;20057;-80
2021/06/02 04:48:26;;;;;;;11.88;8.57;;;18.80;99.90;;;;;;6130160;23;20469;-79
2021/06/02 04:51:01;;;;;;;15.57;8.85;;;18.80;99.90;;;;;;6129313;23;20069;-80
2021/06/02 04:54:09;;;;;;;10.70;8.70;;;18.80;99.90;;;;;;6127178;23;20526;-79
2021/06/02 04:57:23;;;;;;;10.75;9.15;;;18.50;99.90;;;;;;6103878;23;20050;-80
2021/06/02 05:00:17;;;;;;;11.02;8.38;;;18.40;99.90;;;;;;5994543;23;20070;-81
2021/06/02 05:03:17;;;;;;;12.23;8.60;;;18.40;99.90;;;;;;6013928;23;20115;-81
2021/06/02 05:06:32;;;;;;;13.32;8.50;;;18.60;99.90;;;;;;6115168;23;20450;-80
2021/06/02 05:09:19;;;;;;;13.40;9.23;;;18.70;99.90;;;;;;6112477;23;20050;-80
2021/06/02 05:12:43;;;;;;;11.02;8.55;;;18.80;99.90;;;;;;6133442;23;20119;-80
2021/06/02 05:19:15;;;;;;;11.38;8.73;;;19.10;99.90;;;;;;5083638;27;1289526;-78
2021/06/02 05:22:20;;;;;;;13.65;8.30;;;19.70;99.90;;;;;;5089998;28;20059;-78
2021/06/02 05:25:29;;;;;;;10.35;7.65;;;20.90;99.90;;;;;;5089759;28;20139;-79
2021/06/02 05:28:30;;;;;;;12.23;7.65;;;22.10;99.90;;;;;;5073917;28;20135;-79
2021/06/02 05:31:46;;;;;;;12.98;7.80;;;23.10;99.90;;;;;;5093589;22;20060;-80
2021/06/02 05:34:57;;;;;;;12.85;7.90;;;24.10;99.90;;;;;;4984575;28;20132;-81
2021/06/02 05:38:13;;;;;;;9.95;7.22;;;25.00;99.90;;;;;;5012205;28;20140;-80
2021/06/02 05:40:50;;;;;;;9.48;6.72;;;25.00;99.90;;;;;;4970275;28;20086;-81
2021/06/02 05:44:27;;;;;;;9.40;6.60;;;25.20;99.90;;;;;;4988148;28;20144;-83
2021/06/02 05:47:28;;;;;;;10.77;6.38;;;25.00;99.90;;;;;;4996361;28;20089;-81
2021/06/02 05:50:47;;;;;;;11.60;6.03;;;24.90;99.90;;;;;;4996140;28;20466;-82
2021/06/02 05:54:00;;;;;;;13.98;6.65;;;25.20;99.90;;;;;;4935469;29;20299;-80
2021/06/02 05:56:44;;;;;;;;;;;25.70;99.90;;;;;;4935248;29;20054;-80
2021/06/02 05:59:43;;;;;;;10.57;6.00;;;25.50;99.40;;;;;;4968531;28;19969;-80
2021/06/02 06:02:40;;;;;;;10.18;6.10;;;25.60;99.20;;;;;;4959678;28;20086;-78
2021/06/02 06:05:27;;;;;;;9.02;6.20;;;25.90;99.20;;;;;;4992639;28;20420;-79
2021/06/02 06:08:33;;;;;;;7.47;5.43;;;25.80;98.20;;;;;;4993751;28;20510;-78
2021/06/02 06:11:27;;;;;;;8.95;5.78;;;25.60;97.80;;;;;;4989676;28;20082;-79
2021/06/02 06:14:30;;;;;;;8.65;5.65;;;25.40;97.50;;;;;;4991034;28;20057;-78
2021/06/02 06:17:34;;;;;;;6.22;5.10;;;25.20;97.20;;;;;;4992036;28;20188;-80
2021/06/02 06:20:20;;;;;;;7.47;5.70;;;25.50;97.70;;;;;;4992777;28;20133;-79
2021/06/02 06:23:23;;;;;;;8.70;5.70;;;25.70;96.90;;;;;;4991726;28;20054;-79
2021/06/02 06:25:55;;;;;;;8.90;5.47;;;25.80;95.90;;;;;;4990457;28;20475;-78
2021/06/02 06:28:33;;;;;;;6.78;5.20;;;25.60;96.30;;;;;;4989678;28;20051;-79
2021/06/02 06:31:00;;;;;;;8.10;5.20;;;26.10;95.30;;;;;;4976318;28;20051;-78
2021/06/02 06:33:28;;;;;;;12.32;5.60;;;26.40;96.10;;;;;;4977109;28;20137;-78
2021/06/02 06:35:56;;;;;;;7.28;5.43;;;26.80;96.70;;;;;;4977606;28;20129;-78
2021/06/02 06:38:35;;;;;;;7.90;5.68;;;27.20;96.10;;;;;;4976886;28;20460;-78
2021/06/02 06:41:03;;;;;;;8.02;5.55;;;27.60;95.60;;;;;;4976956;28;20519;-78
2021/06/02 06:43:32;;;;;;;8.57;5.25;;;27.90;93.20;;;;;;4976312;28;20323;-77
2021/06/02 06:46:01;;;;;;;7.60;5.45;;;27.90;93.90;;;;;;4975324;28;20138;-78
2021/06/02 06:48:28;;;;;;;7.40;5.20;;;28.40;93.60;;;;;;4976430;28;20403;-78
2021/06/02 06:50:58;;;;;;;9.13;5.80;;;28.50;93.30;;;;;;4976955;28;20078;-78
2021/06/02 06:53:26;;;;;;;7.75;5.82;;;28.50;92.70;;;;;;4976513;28;20082;-79
2021/06/02 06:55:54;;;;;;;8.85;5.82;;;29.10;92.10;;;;;;4976459;28;20350;-79
2021/06/02 06:58:22;;;;;;;8.23;5.43;;;29.40;91.30;;;;;;4977089;28;20101;-78
2021/06/02 07:00:52;;;;;;;9.02;5.82;;;29.60;91.20;;;;;;4976117;28;20174;-79
2021/06/02 07:03:20;;;;;;;11.05;5.78;;;29.90;91.20;;;;;;4978479;28;20073;-80
2021/06/02 07:05:49;;;;;;;12.18;5.55;;;30.10;90.60;;;;;;4976636;28;20165;-80
2021/06/02 07:08:16;;;;;;;6.72;4.75;;;30.00;89.70;;;;;;4977696;28;20071;-78
2021/06/02 07:10:43;;;;;;;10.25;5.72;;;30.00;89.20;;;;;;4979640;28;20063;-80
2021/06/02 07:13:12;;;;;;;8.43;5.25;;;30.10;87.30;;;;;;4980175;28;20070;-80
2021/06/02 07:15:39;;;;;;;7.55;5.00;;;30.20;87.80;;;;;;4979287;28;20054;-81
2021/06/02 07:18:07;;;;;;;8.82;5.35;;;30.40;87.50;;;;;;4978405;28;20102;-80
2021/06/02 07:20:36;;;;;;;6.05;4.70;;;29.90;84.20;;;;;;4977889;28;20085;-80
2021/06/02 07:23:03;;;;;;;9.27;5.25;;;29.80;83.50;;;;;;4979087;28;20139;-78
2021/06/02 07:25:31;;;;;;;15.07;6.32;;;29.30;85.40;;;;;;4979481;28;20086;-80
2021/06/02 07:28:01;;;;;;;6.18;5.10;;;29.50;87.70;;;;;;4978765;28;20423;-79
2021/06/02 07:30:28;;;;;;;7.60;5.10;;;29.30;82.30;;;;;;4979039;28;20057;-78
2021/06/02 07:32:55;;;;;;;8.18;5.65;;;28.80;84.10;;;;;;4976276;28;20138;-77
2021/06/02 07:35:23;;;;;;;6.63;5.25;;;28.90;84.90;;;;;;4975482;28;20117;-79
2021/06/02 07:37:49;;;;;;;8.38;4.95;;;29.20;84.70;;;;;;4976530;28;20134;-79
2021/06/02 07:40:20;;;;;;;6.03;5.10;;;29.60;82.50;;;;;;4975325;28;20050;-78
2021/06/02 07:42:46;;;;;;;6.72;5.00;;;29.50;83.00;;;;;;4975558;28;20058;-78
2021/06/02 07:45:14;;;;;;;8.07;4.60;;;29.50;83.20;;;;;;4976379;28;20082;-79
2021/06/02 07:47:41;;;;;;;6.55;5.00;;;29.40;82.50;;;;;;4976723;28;20231;-78
2021/06/02 07:50:09;;;;;;;7.60;5.32;;;29.30;81.20;;;;;;4975524;28;20082;-79
2021/06/02 07:52:37;;;;;;;7.38;5.28;;;29.60;81.90;;;;;;4975200;28;20511;-81
2021/06/02 07:55:04;;;;;;;8.00;4.85;;;29.50;79.90;;;;;;4977212;28;20121;-81
2021/06/02 07:57:32;;;;;;;5.72;5.13;;;29.10;81.50;;;;;;4976710;28;20085;-81
2021/06/02 07:59:58;;;;;;;7.75;4.97;;;29.40;81.00;;;;;;4977569;28;20055;-80
2021/06/02 08:02:24;;;;;;;7.82;5.20;;;29.10;81.40;;;;;;4977077;28;20098;-81
2021/06/02 08:04:51;;;;;;;9.25;4.90;;;29.10;83.10;;;;;;4977054;28;20234;-80
2021/06/02 08:07:17;;;;;;;7.40;5.10;;;28.90;81.70;;;;;;4977242;28;20082;-80
2021/06/02 08:09:45;;;;;;;8.15;5.40;;;28.90;80.80;;;;;;4977904;28;20110;-80
2021/06/02 08:12:12;;;;;;;6.18;4.95;;;28.90;82.20;;;;;;4977060;28;20082;-79
2021/06/02 08:14:39;;;;;;;9.45;5.50;;;28.80;79.10;;;;;;4976259;28;20129;-80
2021/06/02 08:17:06;;;;;;;6.28;4.78;;;28.60;80.60;;;;;;4977345;28;20134;-79
2021/06/02 08:19:32;;;;;;;7.97;4.85;;;28.50;81.60;;;;;;4976446;28;20051;-81
2021/06/02 08:21:59;;;;;;;6.45;5.10;;;28.80;81.10;;;;;;4976594;28;20488;-82
2021/06/02 08:24:25;;;;;;;10.00;5.13;;;28.50;80.50;;;;;;4975622;28;20502;-80
2021/06/02 08:26:53;;;;;;;9.02;5.07;;;28.70;82.20;;;;;;4968157;28;20065;-80
2021/06/02 08:29:19;;;;;;;7.68;5.03;;;28.80;79.40;;;;;;4963995;28;20074;-80
2021/06/02 08:31:46;;;;;;;6.35;4.80;;;29.00;81.40;;;;;;4965398;28;20078;-80
2021/06/02 08:34:12;;;;;;;7.28;5.28;;;29.50;82.30;;;;;;4965081;28;20075;-80
2021/06/02 08:36:39;;;;;;;8.18;5.00;;;29.20;79.10;;;;;;4965725;28;20416;-79
2021/06/02 08:39:07;;;;;;;7.40;4.90;;;29.70;82.50;;;;;;4962941;28;20423;-80
2021/06/02 08:41:36;;;;;;;9.18;5.20;;;30.00;80.40;;;;;;4962899;28;20062;-79
2021/06/02 08:44:05;;;;;;;7.38;4.75;;;30.00;78.00;;;;;;4963154;28;20149;-79
2021/06/02 08:46:32;;;;;;;10.98;5.32;;;29.90;77.20;;;;;;4965023;28;20047;-79
2021/06/02 08:48:58;;;;;;;6.28;4.78;;;29.50;77.20;;;;;;4963177;28;20105;-78
2021/06/02 08:51:25;;;;;;;8.80;4.82;;;29.20;76.80;;;;;;4961639;28;20133;-79
2021/06/02 08:53:51;;;;;;;6.28;5.07;;;29.60;78.50;;;;;;4963279;28;20181;-80
2021/06/02 08:56:19;;;;;;;9.10;4.60;;;30.10;79.50;;;;;;4974854;28;20119;-80
2021/06/02 08:58:46;;;;;;;8.32;5.10;;;30.20;75.70;;;;;;4974574;28;20047;-81
2021/06/02 09:01:14;;;;;;;5.50;4.55;;;30.50;76.70;;;;;;4974478;28;20104;-79
2021/06/02 09:03:41;;;;;;;11.38;4.85;;;30.70;75.10;;;;;;4975075;28;20051;-80
2021/06/02 09:06:10;;;;;;;7.85;4.90;;;30.60;72.50;;;;;;4974288;28;20043;-79
2021/06/02 09:08:40;;;;;;;7.20;5.13;;;30.70;72.00;;;;;;4974324;28;20043;-80
2021/06/02 09:11:18;;;;;;;10.35;4.80;;;30.20;74.10;;;;;;4973386;28;20119;-79
2021/06/02 09:13:48;;;;;;;7.95;4.60;;;30.30;75.70;;;;;;4971973;28;20615;-79
2021/06/02 09:16:22;;;;;;;7.95;4.95;;;30.50;75.30;;;;;;4976708;28;20150;-80
2021/06/02 09:18:50;;;;;;;6.10;4.53;;;30.60;72.10;;;;;;4977664;28;20066;-82
2021/06/02 09:21:16;;;;;;;7.95;4.43;;;30.80;73.20;;;;;;4979239;28;20047;-81
2021/06/02 09:23:44;;;;;;;8.68;4.43;;;30.80;70.30;;;;;;4980702;28;20073;-77
2021/06/02 09:26:22;;;;;;;10.05;4.75;;;30.70;73.90;;;;;;4973968;28;20522;-80
2021/06/02 09:28:56;;;;;;;9.98;4.90;;;30.70;71.80;;;;;;4973584;28;20117;-80
2021/06/02 09:31:30;;;;;;;16.50;5.18;;;30.90;73.60;;;;;;4972668;28;20511;-79
2021/06/02 09:33:59;;;;;;;6.13;4.50;;;31.00;72.80;;;;;;4973520;28;20066;-77
2021/06/02 09:36:31;;;;;;;7.65;4.40;;;30.40;70.10;;;;;;4973946;28;20484;-77
2021/06/02 09:38:59;;;;;;;;;;;30.00;70.80;;;;;;4974158;28;20074;-77
2021/06/02 09:41:27;;;;;;;5.78;4.10;;;29.50;68.90;;;;;;4973649;28;20064;-78
2021/06/02 09:43:53;;;;;;;8.55;4.38;;;29.60;70.00;;;;;;4972066;28;20082;-79
2021/06/02 09:46:22;;;;;;;8.70;4.45;;;29.60;69.30;;;;;;4972093;28;20134;-78
2021/06/02 09:49:03;;;;;;;5.95;4.20;;;29.40;69.30;;;;;;4974778;28;20404;-78
2021/06/02 09:51:35;;;;;;;6.82;4.50;;;29.30;69.90;;;;;;4972175;28;20054;-78
2021/06/02 09:54:04;;;;;;;8.70;4.40;;;29.00;68.70;;;;;;4972540;28;20050;-78
2021/06/02 09:56:38;;;;;;;6.38;4.57;;;28.70;69.00;;;;;;4969792;28;20054;-77
2021/06/02 09:59:08;;;;;;;8.35;4.22;;;28.50;70.70;;;;;;4971213;28;20050;-79
2021/06/02 10:01:54;;;;;;;6.47;4.95;;;28.40;70.90;;;;;;4975354;28;20054;-78
2021/06/02 10:04:28;;;;;;;6.20;4.80;;;28.00;70.80;;;;;;4967883;28;20460;-77
2021/06/02 10:06:55;;;;;;;7.30;4.15;;;28.10;73.30;;;;;;4966197;28;20138;-78
2021/06/02 10:09:25;;;;;;;6.18;4.22;;;28.00;69.40;;;;;;4968747;28;20138;-79
2021/06/02 10:11:59;;;;;;;7.32;4.10;;;28.20;71.80;;;;;;4974792;28;20047;-78
2021/06/02 10:14:25;;;;;;;7.13;4.13;;;28.30;67.50;;;;;;4975446;28;20090;-78
2021/06/02 10:16:52;;;;;;;5.03;4.05;;;27.90;67.20;;;;;;4974144;28;20478;-78
2021/06/02 10:19:35;;;;;;;6.47;4.20;;;27.60;65.70;;;;;;4971877;28;20145;-78
2021/06/02 10:22:03;;;;;;;4.78;3.80;;;27.50;64.50;;;;;;4974306;28;20109;-79
2021/06/02 10:24:31;;;;;;;8.57;3.88;;;27.60;67.00;;;;;;4975712;28;20055;-79
2021/06/02 10:26:58;;;;;;;4.30;3.90;;;27.80;65.60;;;;;;4977072;28;20073;-79
2021/06/02 10:29:25;;;;;;;4.90;3.63;;;27.80;63.60;;;;;;4974958;28;20130;-79
2021/06/02 10:31:51;;;;;;;6.72;4.32;;;27.90;66.90;;;;;;4976643;28;20133;-79
2021/06/02 10:34:17;;;;;;;4.57;3.83;;;28.10;64.40;;;;;;4979099;28;20046;-78
2021/06/02 10:36:45;;;;;;;5.90;4.20;;;27.90;63.50;;;;;;4986210;28;20090;-79
2021/06/02 10:39:13;;;;;;;6.68;3.85;;;27.90;63.40;;;;;;4983488;28;20081;-80
2021/06/02 10:41:44;;;;;;;5.47;3.95;;;28.00;64.10;;;;;;4982666;28;20142;-81
2021/06/02 10:44:13;;;;;;;10.15;4.32;;;28.20;66.30;;;;;;4983318;28;20131;-80
2021/06/02 10:46:44;;;;;;;5.22;3.97;;;28.30;65.80;;;;;;4984444;28;20054;-80
2021/06/02 10:49:11;;;;;;;5.10;4.00;;;28.00;63.40;;;;;;4980832;28;20082;-79
2021/06/02 10:51:47;;;;;;;6.18;4.05;;;27.80;62.90;;;;;;4976519;28;20107;-79
2021/06/02 10:54:15;;;;;;;6.57;4.22;;;27.60;66.30;;;;;;4981787;28;20089;-80
2021/06/02 10:57:02;;;;;;;6.15;4.22;;;27.60;65.00;;;;;;4983216;28;20073;-80
2021/06/02 10:59:30;;;;;;;5.57;4.38;;;27.50;65.00;;;;;;4982283;28;20182;-79
2021/06/02 11:02:05;;;;;;;7.65;4.00;;;27.60;67.90;;;;;;4984791;28;20085;-79
2021/06/02 11:04:32;;;;;;;7.03;4.55;;;27.80;70.10;;;;;;4981832;28;20054;-78
2021/06/02 11:07:17;;;;;;;10.10;4.20;;;28.00;70.20;;;;;;4981642;28;20106;-80
2021/06/02 11:09:52;;;;;;;6.35;4.13;;;28.10;66.00;;;;;;4979926;28;20054;-79
2021/06/02 11:12:19;;;;;;;7.13;4.00;;;27.90;64.60;;;;;;4979763;28;20126;-78
2021/06/02 11:14:46;;;;;;;6.65;4.10;;;27.80;66.30;;;;;;4980005;28;20561;-79
2021/06/02 11:17:14;;;;;;;6.53;4.00;;;27.70;68.20;;;;;;4980985;28;20055;-79
2021/06/02 11:19:49;;;;;;;11.73;4.13;;;27.90;64.90;;;;;;4980332;28;20050;-78
2021/06/02 11:22:19;;;;;;;12.20;3.95;;;28.00;62.80;;;;;;4977740;28;20055;-80
2021/06/02 11:24:48;;;;;;;8.82;4.20;;;28.10;61.60;;;;;;4979247;28;20085;-80
2021/06/02 11:27:35;;;;;;;8.55;4.15;;;28.30;63.80;;;;;;4979088;28;20097;-79
2021/06/02 11:30:23;;;;;;;12.88;3.90;;;28.30;61.00;;;;;;4979865;28;20065;-79
2021/06/02 11:32:58;;;;;;;8.73;3.88;;;28.20;62.60;;;;;;5037722;22;20057;-87
2021/06/02 11:36:08;;;;;;;6.05;3.85;;;28.40;65.00;;;;;;5042589;28;20088;-86
2021/06/02 11:38:37;;;;;;;7.40;3.88;;;28.60;61.50;;;;;;5038164;28;20056;-86
2021/06/02 11:41:05;;;;;;;5.70;3.60;;;28.60;61.30;;;;;;5037917;28;20085;-86
2021/06/02 11:43:32;;;;;;;7.05;4.00;;;28.70;63.30;;;;;;5039342;28;20180;-87
2021/06/02 11:46:00;;;;;;;6.93;4.05;;;28.50;62.90;;;;;;5039309;28;20482;-87
2021/06/02 11:48:38;;;;;;;4.65;4.00;;;28.60;64.00;;;;;;5037820;28;20049;-87
2021/06/02 11:51:08;;;;;;;5.05;4.25;;;28.60;62.30;;;;;;5039271;28;20038;-86
2021/06/02 11:53:46;;;;;;;5.50;4.03;;;28.60;65.30;;;;;;5037839;28;20058;-87
2021/06/02 11:56:13;;;;;;;7.50;3.80;;;28.60;61.20;;;;;;5039671;28;20049;-89
2021/06/02 11:58:40;;;;;;;6.70;3.85;;;28.50;60.20;;;;;;5039389;28;20437;-89
2021/06/02 12:01:07;;;;;;;5.03;3.63;;;28.20;60.00;;;;;;5039986;28;20486;-89
2021/06/02 12:03:34;;;;;;;6.22;4.05;;;27.90;59.30;;;;;;5040478;28;20060;-89
2021/06/02 12:06:01;;;;;;;8.32;3.92;;;28.10;58.40;;;;;;5041643;28;20513;-90
2021/06/02 12:08:28;;;;;;;5.93;3.95;;;28.10;58.90;;;;;;5040800;28;20147;-89
2021/06/02 12:10:59;;;;;;;4.22;3.50;;;28.10;58.80;;;;;;5045495;28;20454;-89
2021/06/02 12:13:27;;;;;;;6.75;3.83;;;28.00;60.50;;;;;;5044076;28;20156;-90
2021/06/02 12:15:56;;;;;;;4.30;3.58;;;27.90;58.40;;;;;;5042599;28;20095;-89
2021/06/02 12:18:34;;;;;;;6.85;3.80;;;27.90;56.90;;;;;;5042410;28;20081;-88
2021/06/02 12:21:08;;;;;;;4.10;3.70;;;27.90;59.90;;;;;;5042141;28;20060;-90
2021/06/02 12:23:35;;;;;;;5.97;3.90;;;28.00;57.60;;;;;;5042412;28;20049;-89
2021/06/02 12:26:17;;;;;;;7.20;4.07;;;27.90;56.70;;;;;;5077436;22;20056;-80
2021/06/02 12:28:44;;;;;;;4.57;3.55;;;28.00;58.70;;;;;;5059814;28;20076;-80
2021/06/02 12:31:29;;;;;;;4.00;3.50;;;28.10;60.10;;;;;;5057729;28;20048;-79
2021/06/02 12:34:04;;;;;;;4.40;3.80;;;28.20;59.50;;;;;;5039344;28;20141;-80
2021/06/02 12:36:32;;;;;;;7.20;4.20;;;28.20;58.90;;;;;;5040630;28;20045;-80
2021/06/02 12:39:02;;;;;;;4.47;3.58;;;28.10;56.60;;;;;;5064316;22;20045;-80
2021/06/02 12:41:29;;;;;;;5.68;3.80;;;28.10;57.60;;;;;;5040326;28;20056;-80
2021/06/02 12:44:02;;;;;;;4.65;3.90;;;28.00;58.40;;;;;;5041692;28;20071;-80
2021/06/02 12:46:29;;;;;;;6.60;3.90;;;28.00;59.20;;;;;;5039782;28;20060;-78
2021/06/02 12:48:55;;;;;;;10.80;4.22;;;28.00;57.20;;;;;;5051453;28;20052;-80
2021/06/02 12:51:24;;;;;;;6.38;3.53;;;27.90;56.60;;;;;;5058719;28;20068;-78
2021/06/02 12:53:52;;;;;;;5.68;3.70;;;28.00;57.70;;;;;;5057279;28;20048;-80
2021/06/02 12:56:21;;;;;;;5.72;3.78;;;28.10;58.00;;;;;;5056351;28;20140;-78
2021/06/02 12:58:54;;;;;;;5.13;3.60;;;28.30;58.80;;;;;;5056473;28;20071;-80
2021/06/02 13:01:23;;;;;;;7.38;3.75;;;28.30;57.90;;;;;;5057289;28;20532;-79
2021/06/02 13:03:51;;;;;;;5.28;3.80;;;28.20;58.60;;;;;;5056551;28;20052;-79
2021/06/02 13:06:19;;;;;;;4.40;3.80;;;28.20;59.20;;;;;;5056689;28;20049;-79
2021/06/02 13:08:46;;;;;;;5.65;3.78;;;28.00;58.70;;;;;;5058955;28;20051;-79
2021/06/02 13:11:17;;;;;;;5.32;4.15;;;28.00;59.70;;;;;;5056389;28;20056;-80
2021/06/02 13:13:51;;;;;;;7.15;4.35;;;28.00;59.60;;;;;;5060068;28;20056;-79
2021/06/02 13:16:24;;;;;;;7.20;3.92;;;28.20;59.00;;;;;;5059293;28;20048;-80
2021/06/02 13:18:59;;;;;;;4.75;3.85;;;28.30;59.10;;;;;;5057745;28;20052;-79
2021/06/02 13:21:30;;;;;;;7.32;3.80;;;28.50;61.10;;;;;;5057476;28;20055;-82
2021/06/02 13:24:12;;;;;;;5.22;3.95;;;28.60;59.90;;;;;;5060188;28;20052;-79
2021/06/02 13:26:38;;;;;;;5.45;3.72;;;28.60;59.50;;;;;;5060456;28;20075;-82
2021/06/02 13:29:09;;;;;;;4.30;3.60;;;28.60;58.90;;;;;;5058273;28;20072;-80
2021/06/02 13:31:39;;;;;;;4.85;3.90;;;28.50;58.00;;;;;;5059977;28;20401;-80
2021/06/02 13:34:06;;;;;;;6.18;4.00;;;28.50;58.10;;;;;;5054247;28;20060;-80
2021/06/02 13:36:33;;;;;;;11.23;4.18;;;28.50;59.10;;;;;;5059945;28;20402;-80
2021/06/02 13:39:13;;;;;;;5.97;4.00;;;28.60;59.70;;;;;;5062093;28;20163;-80
2021/06/02 13:41:40;;;;;;;6.85;3.92;;;28.50;58.40;;;;;;5065409;28;20427;-80
2021/06/02 13:44:09;;;;;;;5.70;3.83;;;28.40;58.50;;;;;;5064809;28;20044;-80
2021/06/02 13:46:44;;;;;;;7.47;4.05;;;28.30;58.80;;;;;;5065371;28;20064;-80
2021/06/02 13:49:10;;;;;;;5.63;3.60;;;28.30;58.30;;;;;;5063291;28;20092;-80
2021/06/02 13:51:44;;;;;;;7.18;3.90;;;28.40;57.60;;;;;;5062715;28;20045;-80
2021/06/02 13:54:22;;;;;;;7.20;4.03;;;28.40;59.30;;;;;;5063087;28;20126;-81
2021/06/02 13:57:07;;;;;;;7.80;4.28;;;28.50;62.50;;;;;;5062067;28;20173;-80
2021/06/02 13:59:53;;;;;;;4.18;3.63;;;28.80;58.10;;;;;;5062064;28;20049;-81
2021/06/02 14:02:22;;;;;;;5.75;3.67;;;28.80;56.50;;;;;;5059159;28;20452;-81
2021/06/02 14:04:51;;;;;;;4.03;3.63;;;28.80;59.10;;;;;;5061674;28;20064;-80
2021/06/02 14:07:19;;;;;;;6.78;3.78;;;28.90;59.50;;;;;;5062163;28;20061;-79
2021/06/02 14:09:47;;;;;;;4.10;3.70;;;29.10;62.30;;;;;;5062329;28;20095;-82
2021/06/02 14:12:15;;;;;;;11.95;4.03;;;29.10;58.70;;;;;;5062983;28;20057;-81
2021/06/02 14:14:49;;;;;;;6.10;3.60;;;29.10;58.20;;;;;;5062642;28;20413;-81
2021/06/02 14:17:22;;;;;;;7.03;4.00;;;29.00;57.80;;;;;;5063435;28;20056;-81
2021/06/02 14:20:06;;;;;;;7.63;3.75;;;28.90;58.50;;;;;;5049194;28;20083;-81
2021/06/02 14:22:36;;;;;;;5.57;3.58;;;28.90;56.80;;;;;;5042750;28;20057;-81
2021/06/02 14:25:51;;;;;;;5.68;3.83;;;28.90;56.70;;;;;;5043148;28;20046;-82
2021/06/02 14:28:18;;;;;;;5.60;3.75;;;28.80;57.20;;;;;;5042065;28;20053;-79
2021/06/02 14:30:47;;;;;;;5.68;3.38;;;28.80;57.00;;;;;;5040084;28;20072;-80
2021/06/02 14:36:44;;;;;;;3.83;3.33;;;28.90;59.00;;;;;;5040969;28;20061;-80
2021/06/02 14:39:59;;;;;;;4.32;3.60;;;29.00;59.80;;;;;;5054884;28;20063;-81
2021/06/02 14:42:25;;;;;;;5.20;3.60;;;29.00;59.40;;;;;;5062270;28;20052;-83
2021/06/02 14:44:52;;;;;;;5.57;3.83;;;29.00;58.30;;;;;;5063514;28;20146;-82
2021/06/02 14:47:18;;;;;;;6.38;4.00;;;28.90;56.70;;;;;;5062774;28;20053;-83
2021/06/02 14:49:46;;;;;;;4.10;3.50;;;28.80;58.30;;;;;;5062014;28;20045;-81
2021/06/02 14:52:13;;;;;;;6.30;3.90;;;28.80;56.90;;;;;;5059989;28;20045;-80
2021/06/02 14:54:39;;;;;;;5.95;3.60;;;28.90;58.80;;;;;;5060684;28;20139;-82
2021/06/02 14:57:08;;;;;;;5.35;3.60;;;28.90;57.00;;;;;;5062468;28;20104;-82
2021/06/02 14:59:34;;;;;;;6.20;3.80;;;29.00;56.90;;;;;;5062374;28;20065;-83
2021/06/02 15:02:01;;;;;;;6.47;3.60;;;29.00;58.20;;;;;;5061620;28;20080;-82
2021/06/02 15:04:30;;;;;;;4.32;3.65;;;29.10;58.80;;;;;;5062218;28;20084;-82
2021/06/02 15:10:32;;;;;;;4.93;3.75;;;29.20;59.70;;;;;;5027097;28;20052;-82
2021/06/02 15:16:33;;;;;;;5.13;3.88;;;29.00;57.00;;;;;;5053269;28;20106;-83
2021/06/02 15:19:08;;;;;;;6.25;3.90;;;28.90;58.40;;;;;;5062405;28;20104;-82
2021/06/02 15:21:43;;;;;;;3.90;3.40;;;29.00;59.70;;;;;;5061948;28;20052;-81
2021/06/02 15:24:23;;;;;;;5.65;4.03;;;29.00;59.10;;;;;;5061646;28;20072;-82
2021/06/02 15:26:54;;;;;;;6.13;3.70;;;29.00;59.70;;;;;;5062185;28;20049;-81
2021/06/02 15:30:04;;;;;;;5.78;3.95;;;29.10;58.70;;;;;;5062719;28;20041;-82
2021/06/02 15:33:04;;;;;;;4.68;3.58;;;29.00;59.50;;;;;;5054724;28;20063;-82
2021/06/02 15:38:51;;;;;;;6.32;3.75;;;29.10;59.50;;;;;;5026241;28;20063;-80
2021/06/02 15:41:30;;;;;;;5.60;3.90;;;29.10;60.00;;;;;;5061237;28;20106;-79
2021/06/02 15:44:13;;;;;;;4.97;3.55;;;29.10;59.40;;;;;;5063600;28;20056;-81
2021/06/02 15:46:41;;;;;;;;;;;29.00;59.10;;;;;;5078833;28;20124;-82
2021/06/02 15:49:19;;;;;;;7.22;3.75;;;29.00;59.60;;;;;;5077017;28;19916;-81
2021/06/02 15:51:55;;;;;;;5.53;3.97;;;28.90;58.60;;;;;;5076777;28;20099;-83
2021/06/02 15:54:33;;;;;;;5.70;3.85;;;29.00;60.30;;;;;;5065679;28;20060;-81
2021/06/02 15:57:17;;;;;;;7.25;3.75;;;29.00;60.00;;;;;;5061904;28;20136;-83
2021/06/02 15:59:52;;;;;;;7.55;4.00;;;29.00;60.20;;;;;;5061279;28;20044;-82
2021/06/02 16:02:27;;;;;;;6.07;3.80;;;28.90;60.80;;;;;;5061647;28;20509;-82
2021/06/02 16:04:53;;;;;;;7.57;4.20;;;28.90;61.60;;;;;;5062218;28;20056;-81
2021/06/02 16:07:29;;;;;;;6.68;5.03;;;29.00;61.10;;;;;;5061277;28;20414;-82
2021/06/02 16:10:13;;;;;;;6.28;4.10;;;29.00;59.00;;;;;;5060913;28;20464;-81
2021/06/02 16:12:45;;;;;;;4.03;3.55;;;28.80;58.60;;;;;;5061002;28;20144;-81
2021/06/02 16:15:13;;;;;;;;;;;28.80;58.30;;;;;;5060531;28;20049;-81
2021/06/02 16:17:57;;;;;;;6.18;3.78;;;28.70;59.90;;;;;;5061397;28;20296;-83
2021/06/02 16:20:28;;;;;;;8.00;4.38;;;28.80;60.00;;;;;;5063268;28;20057;-83
2021/06/02 16:22:56;;;;;;;4.78;3.72;;;28.80;59.00;;;;;;5062171;28;20056;-80